Time;durP1;ratioP1;P1;durP2;ratioP2;P2;SDS_P1;SDS_P2;PMS_P1;PMS_P2;Temp;Humidity;BMP_temperature;BMP_pressure;BME280_temperature;BME280_humidity;BME280_pressure;Samples;Min_cycle;Max_cycle;Signal;HPM_P1;HPM_P2
2022/08/19 00:00:08;;;;;;;;;;;;;;;22.97;66.06;98886.66;1694450;83;20107;-70
2022/08/19 00:02:35;;;;;;;;;;;;;;;22.97;66.10;98893.44;1695710;84;20119;-70
2022/08/19 00:05:02;;;;;;;;;;;;;;;22.96;66.08;98889.66;1695938;84;20405;-74
2022/08/19 00:07:29;;;;;;;;;;;;;;;22.94;65.92;98889.93;1695801;84;21159;-72
2022/08/19 00:09:56;;;;;;;;;;;;;;;22.94;65.84;98894.00;1693199;84;20142;-73
2022/08/19 00:12:22;;;;;;;;;;;;;;;22.91;65.76;98896.41;1684745;85;20088;-75
2022/08/19 00:14:50;;;;;;;;;;;;;;;22.91;65.69;98897.77;1685767;85;20119;-73
2022/08/19 00:17:16;;;;;;;;;;;;;;;22.90;65.79;98896.95;1685844;84;20450;-72
2022/08/19 00:19:42;;;;;;;;;;;;;;;22.90;65.79;98897.48;1685943;85;21156;-73
2022/08/19 00:22:08;;;;;;;;;;;;;;;22.88;65.79;98892.33;1685416;85;20120;-73
2022/08/19 00:24:38;;;;;;;;;;;;;;;22.87;65.88;98890.69;1685624;85;20152;-76
2022/08/19 00:27:04;;;;;;;;;;;;;;;22.81;65.84;98889.58;1685779;84;20099;-74
2022/08/19 00:29:31;;;;;;;;;;;;;;;22.77;65.95;98886.57;1685972;84;20119;-73
2022/08/19 00:31:59;;;;;;;;;;;;;;;22.73;66.03;98883.55;1684858;85;21143;-72
2022/08/19 00:34:27;;;;;;;;;;;;;;;22.72;66.13;98884.66;1685485;84;20075;-74
2022/08/19 00:36:54;;;;;;;;;;;;;;;22.70;66.24;98886.00;1672143;85;20116;-72
2022/08/19 00:39:20;;;;;;;;;;;;;;;22.63;66.12;98884.86;1685426;84;20139;-72
2022/08/19 00:41:50;;;;;;;;;;;;;;;22.57;66.14;98884.54;1684916;84;20104;-74
2022/08/19 00:44:21;;;;;;;;;;;;;;;22.51;66.35;98879.34;1685851;85;21141;-73
2022/08/19 00:46:49;;;;;;;;;;;;;;;22.44;66.60;98877.40;1685888;84;20100;-73
2022/08/19 00:49:19;;;;;;;;;;;;;;;22.42;66.76;98878.20;1686039;84;20124;-73
2022/08/19 00:51:47;;;;;;;;;;;;;;;22.39;66.93;98880.08;1684434;84;20176;-73
2022/08/19 00:54:13;;;;;;;;;;;;;;;22.40;67.14;98880.34;1671325;85;20099;-73
2022/08/19 00:56:40;;;;;;;;;;;;;;;22.40;67.13;98877.62;1686092;85;21149;-73
2022/08/19 00:59:09;;;;;;;;;;;;;;;22.42;67.14;98883.06;1686027;85;20100;-73
2022/08/19 01:01:38;;;;;;;;;;;;;;;22.41;67.08;98885.52;1684965;85;20111;-73
2022/08/19 01:04:04;;;;;;;;;;;;;;;22.37;67.08;98881.67;1667170;85;20545;-74
2022/08/19 01:06:32;;;;;;;;;;;;;;;22.32;67.25;98883.53;1686199;85;20159;-73
2022/08/19 01:08:59;;;;;;;;;;;;;;;22.26;67.44;98878.64;1686026;85;21833;-73
2022/08/19 01:11:27;;;;;;;;;;;;;;;22.17;67.52;98878.00;1684102;84;20144;-71
2022/08/19 01:13:53;;;;;;;;;;;;;;;22.08;67.75;98885.81;1685209;85;20120;-74
2022/08/19 01:16:21;;;;;;;;;;;;;;;22.00;67.91;98888.43;1695945;83;20656;-74
2022/08/19 01:18:47;;;;;;;;;;;;;;;21.95;67.99;98893.02;1685986;84;20075;-73
2022/08/19 01:21:29;;;;;;;;;;;;;;;21.88;68.06;98894.56;1685162;85;20766;-73
2022/08/19 01:23:55;;;;;;;;;;;;;;;21.84;68.25;98892.60;1652058;85;20145;-71
2022/08/19 01:26:23;;;;;;;;;;;;;;;21.79;68.32;98889.32;1685966;85;20144;-71
2022/08/19 01:28:51;;;;;;;;;;;;;;;21.74;68.47;98886.56;1686098;84;20411;-71
2022/08/19 01:31:19;;;;;;;;;;;;;;;21.71;68.62;98886.25;1684272;85;20133;-71
2022/08/19 01:33:46;;;;;;;;;;;;;;;21.65;68.78;98884.55;1686017;84;21176;-72
2022/08/19 01:36:15;;;;;;;;;;;;;;;21.61;68.82;98888.86;1666580;84;20110;-72
2022/08/19 01:38:42;;;;;;;;;;;;;;;21.54;68.88;98895.28;1685355;85;20131;-71
2022/08/19 01:41:10;;;;;;;;;;;;;;;21.54;69.04;98900.70;1685699;85;20445;-72
2022/08/19 01:43:37;;;;;;;;;;;;;;;21.57;69.07;98908.84;1687389;84;20112;-71
2022/08/19 01:46:04;;;;;;;;;;;;;;;21.62;68.85;98913.48;1687647;85;21807;-71
2022/08/19 01:48:36;;;;;;;;;;;;;;;21.63;68.66;98907.01;1686170;85;20107;-72
2022/08/19 01:51:02;;;;;;;;;;;;;;;21.63;68.61;98898.36;1685914;84;20080;-71
2022/08/19 01:53:28;;;;;;;;;;;;;;;21.61;68.54;98892.39;1686061;85;20123;-72
2022/08/19 01:55:55;;;;;;;;;;;;;;;21.59;68.69;98895.86;1686084;84;20191;-72
2022/08/19 01:58:24;;;;;;;;;;;;;;;21.59;68.65;98893.72;1685432;85;20869;-74
2022/08/19 02:00:51;;;;;;;;;;;;;;;21.61;68.53;98896.45;1685661;85;20123;-71
2022/08/19 02:03:17;;;;;;;;;;;;;;;21.63;68.32;98902.42;1686953;85;20107;-72
2022/08/19 02:05:45;;;;;;;;;;;;;;;21.67;68.12;98898.11;1688806;84;20174;-72
2022/08/19 02:08:11;;;;;;;;;;;;;;;21.72;67.91;98910.91;1688970;85;20131;-72
2022/08/19 02:10:40;;;;;;;;;;;;;;;21.77;67.69;98910.95;1691277;81;21465;-72
2022/08/19 02:13:06;;;;;;;;;;;;;;;21.78;67.47;98912.04;1698337;81;20071;-72
2022/08/19 02:15:33;;;;;;;;;;;;;;;21.79;67.28;98912.33;1698423;83;20162;-72
2022/08/19 02:17:59;;;;;;;;;;;;;;;21.78;67.22;98904.45;1698372;83;20107;-71
2022/08/19 02:20:25;;;;;;;;;;;;;;;21.77;67.22;98913.66;1697528;83;20405;-72
2022/08/19 02:22:52;;;;;;;;;;;;;;;21.78;67.23;98916.63;1696127;83;21836;-71
2022/08/19 02:25:18;;;;;;;;;;;;;;;21.81;67.29;98912.89;1696876;84;20163;-72
2022/08/19 02:27:44;;;;;;;;;;;;;;;21.84;67.34;98908.84;1697804;83;20099;-72
2022/08/19 02:30:15;;;;;;;;;;;;;;;21.84;67.49;98915.62;1696417;84;20186;-73
2022/08/19 02:32:42;;;;;;;;;;;;;;;21.82;67.71;98918.56;1695944;83;20134;-72
2022/08/19 02:35:10;;;;;;;;;;;;;;;21.81;67.94;98915.59;1696401;83;21155;-72
2022/08/19 02:40:22;;;;;;;;;;;;;;;21.75;68.09;98917.96;1678130;84;20429;-71
2022/08/19 02:42:48;;;;;;;;;;;;;;;21.73;68.14;98920.11;1695362;84;20151;-72
2022/08/19 02:45:14;;;;;;;;;;;;;;;21.72;68.14;98923.88;1695976;83;20120;-72
2022/08/19 02:47:42;;;;;;;;;;;;;;;21.72;67.90;98922.53;1694854;84;22013;-72
2022/08/19 02:50:09;;;;;;;;;;;;;;;21.71;67.66;98933.09;1695765;84;20087;-72
2022/08/19 02:52:36;;;;;;;;;;;;;;;21.66;67.79;98926.27;1695208;84;20176;-72
2022/08/19 02:55:02;;;;;;;;;;;;;;;21.66;67.76;98927.63;1695798;84;20095;-72
2022/08/19 02:57:31;;;;;;;;;;;;;;;21.62;67.78;98929.19;1695524;83;20525;-72
2022/08/19 02:59:57;;;;;;;;;;;;;;;21.55;68.11;98929.94;1695912;84;21840;-71
2022/08/19 03:02:24;;;;;;;;;;;;;;;21.48;68.39;98934.73;1695590;84;20087;-72
2022/08/19 03:04:50;;;;;;;;;;;;;;;21.40;68.63;98929.77;1695804;84;20201;-71
2022/08/19 03:07:18;;;;;;;;;;;;;;;21.39;68.80;98933.00;1695299;84;20103;-71
2022/08/19 03:09:44;;;;;;;;;;;;;;;21.37;68.99;98935.68;1695802;84;20099;-72
2022/08/19 03:12:10;;;;;;;;;;;;;;;21.33;69.07;98936.71;1668906;84;21160;-72
2022/08/19 03:14:37;;;;;;;;;;;;;;;21.32;69.04;98938.33;1684959;85;20111;-70
2022/08/19 03:17:04;;;;;;;;;;;;;;;21.29;69.07;98936.13;1683877;84;20100;-72
2022/08/19 03:19:31;;;;;;;;;;;;;;;21.27;69.07;98942.33;1668560;85;20454;-73
2022/08/19 03:21:58;;;;;;;;;;;;;;;21.20;69.34;98934.91;1685941;85;20100;-76
2022/08/19 03:24:24;;;;;;;;;;;;;;;21.20;69.60;98940.33;1684669;84;21805;-74
2022/08/19 03:26:52;;;;;;;;;;;;;;;21.24;69.62;98941.47;1685501;84;20470;-73
2022/08/19 03:29:19;;;;;;;;;;;;;;;21.29;69.74;98935.59;1685991;85;20104;-75
2022/08/19 03:31:45;;;;;;;;;;;;;;;21.36;69.74;98944.33;1685849;84;20405;-74
2022/08/19 03:34:12;;;;;;;;;;;;;;;21.45;69.51;98950.13;1685164;84;20541;-74
2022/08/19 03:36:39;;;;;;;;;;;;;;;21.56;69.20;98956.47;1683761;84;21793;-73
2022/08/19 03:39:05;;;;;;;;;;;;;;;21.68;68.86;98959.31;1673110;85;20088;-72
2022/08/19 03:41:33;;;;;;;;;;;;;;;21.79;68.49;98966.48;1686053;84;20214;-73
2022/08/19 03:43:59;;;;;;;;;;;;;;;21.92;68.18;98973.41;1654578;85;20500;-71
2022/08/19 03:46:28;;;;;;;;;;;;;;;22.08;67.83;98973.84;1677505;84;20088;-71
2022/08/19 03:48:56;;;;;;;;;;;;;;;22.25;67.27;98968.28;1685493;85;21919;-77
2022/08/19 03:51:30;;;;;;;;;;;;;;;22.45;66.74;98984.17;1686084;84;20466;-75
2022/08/19 03:53:57;;;;;;;;;;;;;;;22.64;66.15;98981.39;1685464;84;20430;-76
2022/08/19 03:56:30;;;;;;;;;;;;;;;22.88;65.55;98987.78;1685905;85;20433;-73
2022/08/19 03:58:57;;;;;;;;;;;;;;;23.09;65.06;98981.41;1685370;85;20100;-73
2022/08/19 04:01:26;;;;;;;;;;;;;;;23.29;64.44;98983.68;1685184;85;21120;-74
2022/08/19 04:03:52;;;;;;;;;;;;;;;23.51;63.67;98984.91;1684961;84;20136;-75
2022/08/19 04:06:21;;;;;;;;;;;;;;;23.78;63.04;98978.73;1685553;85;20112;-73
2022/08/19 04:08:50;;;;;;;;;;;;;;;24.04;62.19;98983.67;1685285;85;20117;-74
2022/08/19 04:11:20;;;;;;;;;;;;;;;24.34;61.33;98989.19;1688104;84;20079;-73
2022/08/19 04:13:47;;;;;;;;;;;;;;;24.66;60.42;98986.20;1695615;84;21942;-73
2022/08/19 04:16:14;;;;;;;;;;;;;;;24.99;59.54;98984.81;1695811;83;20425;-75
2022/08/19 04:18:40;;;;;;;;;;;;;;;25.34;58.61;98988.00;1695143;84;20099;-73
2022/08/19 04:21:07;;;;;;;;;;;;;;;25.67;57.33;98986.80;1696023;84;20083;-73
2022/08/19 04:23:33;;;;;;;;;;;;;;;25.99;56.27;98986.89;1695385;84;20119;-73
2022/08/19 04:26:00;;;;;;;;;;;;;;;26.29;55.17;98977.16;1696039;84;21145;-73
2022/08/19 04:28:26;;;;;;;;;;;;;;;26.62;54.50;98970.09;1695607;84;20087;-73
2022/08/19 04:30:53;;;;;;;;;;;;;;;26.96;53.64;98973.04;1695455;84;20112;-73
2022/08/19 04:33:22;;;;;;;;;;;;;;;27.29;52.26;98966.41;1695117;84;20075;-73
2022/08/19 04:35:49;;;;;;;;;;;;;;;27.56;51.32;98970.73;1686893;84;20095;-73
2022/08/19 04:38:16;;;;;;;;;;;;;;;27.84;50.31;98975.84;1695095;84;21107;-73
2022/08/19 04:43:29;;;;;;;;;;;;;;;28.31;48.86;98974.91;1695685;84;20084;-72
2022/08/19 04:45:55;;;;;;;;;;;;;;;28.65;48.14;98978.20;1695692;84;20467;-71
2022/08/19 04:48:28;;;;;;;;;;;;;;;28.98;47.33;98972.13;1695607;83;20145;-72
2022/08/19 04:50:59;;;;;;;;;;;;;;;29.34;46.57;98973.91;1696155;84;21161;-72
2022/08/19 04:53:28;;;;;;;;;;;;;;;29.72;45.83;98969.56;1695362;84;20448;-75
2022/08/19 04:55:56;;;;;;;;;;;;;;;30.02;45.15;98960.67;1696108;84;20099;-74
2022/08/19 04:58:24;;;;;;;;;;;;;;;30.25;44.00;98965.06;1694585;84;20087;-75
2022/08/19 05:00:50;;;;;;;;;;;;;;;30.43;44.01;98960.53;1688856;84;20417;-75
2022/08/19 05:03:17;;;;;;;;;;;;;;;30.76;43.59;98959.16;1701621;83;21503;-73
2022/08/19 05:05:44;;;;;;;;;;;;;;;31.11;42.14;98958.77;1695839;84;20091;-76
2022/08/19 05:08:12;;;;;;;;;;;;;;;31.31;42.05;98965.09;1695165;84;20481;-74
2022/08/19 05:10:39;;;;;;;;;;;;;;;31.53;41.78;98955.96;1694503;84;20387;-74
2022/08/19 05:13:05;;;;;;;;;;;;;;;31.84;41.06;98958.59;1695341;84;20430;-73
2022/08/19 05:15:32;;;;;;;;;;;;;;;32.09;40.49;98954.55;1696400;84;21144;-73
2022/08/19 05:23:27;;;;;;;;;;;;;;;33.09;38.73;98948.16;1696068;84;20103;-75
2022/08/19 05:25:53;;;;;;;;;;;;;;;33.48;37.80;98944.23;1695226;84;20075;-75
2022/08/19 05:28:20;;;;;;;;;;;;;;;33.87;37.01;98945.22;1696097;84;21137;-74
2022/08/19 05:30:47;;;;;;;;;;;;;;;34.15;36.02;98947.70;1691667;83;20083;-75
2022/08/19 05:33:14;;;;;;;;;;;;;;;34.40;35.80;98957.47;1679451;84;20087;-75
2022/08/19 05:35:40;;;;;;;;;;;;;;;34.61;34.97;98960.47;1683796;84;20389;-73
2022/08/19 05:38:08;;;;;;;;;;;;;;;34.77;34.58;98963.95;1696926;83;20445;-74
2022/08/19 05:40:38;;;;;;;;;;;;;;;34.86;34.55;98966.84;1715993;83;21108;-72
2022/08/19 05:43:05;;;;;;;;;;;;;;;34.98;34.17;98971.61;1727541;83;20101;-73
2022/08/19 05:45:32;;;;;;;;;;;;;;;35.09;33.97;98976.39;1727579;83;20120;-73
2022/08/19 05:47:58;;;;;;;;;;;;;;;35.24;33.77;98984.58;1712848;83;20133;-72
2022/08/19 05:50:26;;;;;;;;;;;;;;;35.43;33.60;98988.16;1724146;83;20101;-72
2022/08/19 05:52:52;;;;;;;;;;;;;;;35.63;33.36;98988.64;1706996;83;21254;-72
2022/08/19 05:55:20;;;;;;;;;;;;;;;35.71;32.63;98989.09;1728022;83;20108;-72
2022/08/19 05:57:46;;;;;;;;;;;;;;;35.55;32.75;98991.77;1704844;83;20169;-73
2022/08/19 06:00:13;;;;;;;;;;;;;;;35.44;32.61;98985.61;1725838;83;20177;-73
2022/08/19 06:02:40;;;;;;;;;;;;;;;35.33;32.98;98992.98;1713816;83;20212;-76
2022/08/19 06:05:08;;;;;;;;;;;;;;;35.29;33.12;98977.44;1727589;83;21184;-74
2022/08/19 06:07:36;;;;;;;;;;;;;;;35.35;33.43;98974.08;1708062;83;20194;-74
2022/08/19 06:10:07;;;;;;;;;;;;;;;35.64;33.53;98979.20;1685780;83;20160;-76
2022/08/19 06:12:35;;;;;;;;;;;;;;;35.88;32.55;98975.81;1722257;82;20501;-73
2022/08/19 06:15:04;;;;;;;;;;;;;;;35.92;32.38;98982.28;1717904;83;20493;-74
2022/08/19 06:17:31;;;;;;;;;;;;;;;35.94;32.30;98979.96;1694294;83;21773;-75
2022/08/19 06:19:58;;;;;;;;;;;;;;;35.88;32.32;98985.50;1707679;83;20120;-76
2022/08/19 06:22:24;;;;;;;;;;;;;;;35.94;32.74;98992.98;1727468;83;20124;-73
2022/08/19 06:24:52;;;;;;;;;;;;;;;36.26;32.78;98986.48;1727347;83;20446;-74
2022/08/19 06:27:19;;;;;;;;;;;;;;;36.71;32.18;98986.80;1716813;83;20075;-73
2022/08/19 06:29:46;;;;;;;;;;;;;;;37.18;31.67;98993.81;1714299;83;21140;-73
2022/08/19 06:32:14;;;;;;;;;;;;;;;37.42;30.72;98993.06;1687262;83;20076;-73
2022/08/19 06:34:41;;;;;;;;;;;;;;;37.51;30.86;98989.54;1716755;83;20096;-73
2022/08/19 06:37:08;;;;;;;;;;;;;;;37.79;30.31;98982.45;1695915;84;20434;-73
2022/08/19 06:39:38;;;;;;;;;;;;;;;37.90;30.48;98983.54;1696156;83;20127;-73
2022/08/19 06:42:06;;;;;;;;;;;;;;;38.26;30.33;98989.27;1696166;83;22181;-74
2022/08/19 06:44:36;;;;;;;;;;;;;;;38.76;29.34;98992.53;1695888;84;20103;-73
2022/08/19 06:47:07;;;;;;;;;;;;;;;39.04;29.24;98984.70;1695869;84;20163;-71
2022/08/19 06:49:33;;;;;;;;;;;;;;;39.50;28.98;98991.09;1715253;83;20413;-74
2022/08/19 06:52:00;;;;;;;;;;;;;;;40.09;28.29;98991.83;1710883;83;20073;-73
2022/08/19 06:54:29;;;;;;;;;;;;;;;40.54;27.66;98979.69;1723931;83;21269;-74
2022/08/19 06:57:01;;;;;;;;;;;;;;;40.77;26.70;98976.16;1723734;82;20280;-73
2022/08/19 06:59:27;;;;;;;;;;;;;;;41.03;26.73;98976.64;1723937;83;20097;-75
2022/08/19 07:01:55;;;;;;;;;;;;;;;41.18;25.31;98970.00;1723701;83;20086;-75
2022/08/19 07:04:23;;;;;;;;;;;;;;;41.18;25.16;98975.58;1723966;83;20514;-75
2022/08/19 07:06:50;;;;;;;;;;;;;;;41.08;24.96;98979.08;1723774;83;21162;-76
2022/08/19 07:09:17;;;;;;;;;;;;;;;40.94;25.38;98968.59;1723744;83;20101;-75
2022/08/19 07:11:46;;;;;;;;;;;;;;;40.91;25.16;98968.57;1696667;83;20092;-75
2022/08/19 07:14:13;;;;;;;;;;;;;;;40.80;25.30;98969.83;1700968;84;20467;-75
2022/08/19 07:16:40;;;;;;;;;;;;;;;40.76;25.54;98973.73;1701562;83;20463;-75
2022/08/19 07:19:07;;;;;;;;;;;;;;;41.03;25.27;98973.86;1699159;83;21125;-72
2022/08/19 07:21:33;;;;;;;;;;;;;;;41.37;25.10;98976.78;1697232;83;20086;-74
2022/08/19 07:24:00;;;;;;;;;;;;;;;41.69;25.00;98981.98;1682428;83;20438;-74
2022/08/19 07:26:28;;;;;;;;;;;;;;;41.95;24.64;98981.01;1657864;86;20102;-74
2022/08/19 07:28:55;;;;;;;;;;;;;;;41.95;24.31;98981.01;1657855;85;20111;-76
2022/08/19 07:31:24;;;;;;;;;;;;;;;41.85;24.54;98985.91;1657632;86;21156;-75
2022/08/19 07:33:51;;;;;;;;;;;;;;;41.87;24.75;98980.76;1662884;85;20077;-74
2022/08/19 07:36:19;;;;;;;;;;;;;;;42.08;23.42;98980.88;1643280;85;20148;-75
2022/08/19 07:38:48;;;;;;;;;;;;;;;42.24;23.05;98981.36;1670082;85;20416;-75
2022/08/19 07:41:16;;;;;;;;;;;;;;;42.37;23.26;98977.65;1643349;85;20125;-76
2022/08/19 07:43:43;;;;;;;;;;;;;;;42.71;22.79;98980.36;1657621;86;21179;-72
2022/08/19 07:46:09;;;;;;;;;;;;;;;42.95;21.85;98971.25;1683873;83;20112;-75
2022/08/19 07:48:36;;;;;;;;;;;;;;;43.20;22.33;98963.48;1680623;83;20096;-74
2022/08/19 07:51:04;;;;;;;;;;;;;;;43.70;21.79;98966.45;1660291;85;20458;-76
2022/08/19 07:53:31;;;;;;;;;;;;;;;44.07;21.48;98968.80;1690491;83;20107;-73
2022/08/19 07:56:03;;;;;;;;;;;;;;;44.54;20.91;98967.45;1683886;84;20983;-76
2022/08/19 07:58:28;;;;;;;;;;;;;;;44.71;20.41;98967.37;1696864;83;20093;-74
2022/08/19 08:00:55;;;;;;;;;;;;;;;44.80;20.11;98960.68;1692767;83;20129;-74
2022/08/19 08:09:10;;;;;;;;;;;;;;;44.60;19.78;98966.63;1722285;82;20439;-74
2022/08/19 08:11:19;;;;;;;;;;;;;;;44.14;20.44;98959.78;1714747;82;20114;-74
2022/08/19 08:13:45;;;;;;;;;;;;;;;44.11;20.73;98958.42;1727268;81;20112;-74
2022/08/19 08:16:11;;;;;;;;;;;;;;;44.36;20.62;98967.52;1732257;81;20477;-74
2022/08/19 08:18:41;;;;;;;;;;;;;;;44.46;20.42;98964.45;1732728;81;20121;-74
2022/08/19 08:21:06;;;;;;;;;;;;;;;44.64;19.78;98961.78;1732622;81;21165;-75
2022/08/19 08:23:32;;;;;;;;;;;;;;;44.57;19.71;98963.23;1733647;81;20485;-75
2022/08/19 08:25:59;;;;;;;;;;;;;;;44.62;20.13;98962.00;1732351;81;20402;-74
2022/08/19 08:28:25;;;;;;;;;;;;;;;44.84;20.26;98960.67;1733666;83;20567;-72
2022/08/19 08:30:52;;;;;;;;;;;;;;;45.12;19.63;98952.66;1733149;81;20446;-73
2022/08/19 08:33:22;;;;;;;;;;;;;;;45.18;19.56;98949.62;1733721;81;21133;-71
2022/08/19 08:35:49;;;;;;;;;;;;;;;45.25;19.97;98953.79;1733102;81;20179;-72
2022/08/19 08:38:15;;;;;;;;;;;;;;;45.62;19.47;98952.48;1733644;81;20454;-73
2022/08/19 08:40:51;;;;;;;;;;;;;;;45.88;18.90;98957.41;1737748;81;20096;-73
2022/08/19 08:43:30;;;;;;;;;;;;;;;45.93;18.70;98964.58;1751364;81;20110;-73
2022/08/19 08:46:00;;;;;;;;;;;;;;;46.07;18.31;98970.08;1764340;81;21156;-74
2022/08/19 08:48:48;;;;;;;;;;;;;;;45.86;18.07;98972.50;1736815;81;20097;-72
2022/08/19 08:51:18;;;;;;;;;;;;;;;45.64;17.85;98963.28;1743720;81;20082;-73
2022/08/19 08:53:45;;;;;;;;;;;;;;;45.49;18.47;98967.42;1763254;81;20094;-73
2022/08/19 08:56:12;;;;;;;;;;;;;;;45.44;18.40;98968.67;1707638;83;20542;-73
2022/08/19 08:58:52;;;;;;;;;;;;;;;45.10;17.80;98964.31;1750680;81;21263;-73
2022/08/19 09:01:19;;;;;;;;;;;;;;;44.94;18.40;98959.02;1742616;81;20082;-74
2022/08/19 09:03:45;;;;;;;;;;;;;;;45.30;18.61;98957.55;1761728;81;20082;-75
2022/08/19 09:06:24;;;;;;;;;;;;;;;45.60;18.44;98954.08;1749231;81;20116;-72
2022/08/19 09:09:14;;;;;;;;;;;;;;;45.78;18.00;98958.33;1754935;81;20201;-74
2022/08/19 09:12:17;;;;;;;;;;;;;;;45.64;18.14;98961.28;1758481;81;21119;-71
2022/08/19 09:14:53;;;;;;;;;;;;;;;45.78;17.88;98961.75;1730663;81;20221;-74
2022/08/19 09:17:24;;;;;;;;;;;;;;;45.74;18.15;98961.77;1739535;81;20100;-73
2022/08/19 09:19:52;;;;;;;;;;;;;;;45.26;18.61;98967.43;1761551;81;20160;-74
2022/08/19 09:22:21;;;;;;;;;;;;;;;44.57;19.00;98964.63;1762731;81;20444;-73
2022/08/19 09:24:47;;;;;;;;;;;;;;;43.61;19.72;98964.09;1749189;81;21286;-72
2022/08/19 09:27:13;;;;;;;;;;;;;;;42.52;20.91;98964.52;1756553;81;20142;-70
2022/08/19 09:29:41;;;;;;;;;;;;;;;41.49;21.98;98958.91;1748869;81;32644;-72
2022/08/19 09:32:07;;;;;;;;;;;;;;;40.77;22.91;98957.23;1740861;81;20129;-71
2022/08/19 09:34:34;;;;;;;;;;;;;;;40.08;23.97;98957.59;1752072;81;20082;-73
2022/08/19 09:37:00;;;;;;;;;;;;;;;39.51;24.81;98963.47;1731947;83;21101;-73
2022/08/19 09:39:27;;;;;;;;;;;;;;;38.88;25.73;98968.14;1739647;81;20085;-70
2022/08/19 09:41:53;;;;;;;;;;;;;;;38.24;26.28;98977.73;1764412;81;20102;-71
2022/08/19 09:44:22;;;;;;;;;;;;;;;37.64;27.23;98968.84;1764536;81;20094;-71
2022/08/19 09:46:48;;;;;;;;;;;;;;;37.29;27.52;98970.72;1749074;81;20430;-71
2022/08/19 09:49:16;;;;;;;;;;;;;;;36.98;28.01;98970.71;1753393;81;21141;-71
2022/08/19 09:51:43;;;;;;;;;;;;;;;36.70;28.17;98970.73;1764414;81;20412;-71
2022/08/19 09:54:09;;;;;;;;;;;;;;;36.57;28.64;98972.53;1764552;81;20468;-71
2022/08/19 09:56:35;;;;;;;;;;;;;;;36.52;27.94;98976.38;1764438;81;20166;-70
2022/08/19 09:59:03;;;;;;;;;;;;;;;36.36;28.26;98977.67;1764683;81;20133;-71
2022/08/19 10:01:30;;;;;;;;;;;;;;;36.27;27.89;98975.62;1764791;81;21099;-71
2022/08/19 10:03:57;;;;;;;;;;;;;;;36.05;28.50;98976.16;1742695;81;20098;-72
2022/08/19 10:06:25;;;;;;;;;;;;;;;35.74;29.36;98976.77;1764575;81;20423;-72
2022/08/19 10:08:51;;;;;;;;;;;;;;;35.61;29.75;98979.32;1753952;81;20179;-71
2022/08/19 10:11:19;;;;;;;;;;;;;;;35.35;30.44;98982.98;1749810;81;20120;-71
2022/08/19 10:13:45;;;;;;;;;;;;;;;35.16;30.99;98984.11;1737399;81;21120;-71
2022/08/19 10:16:17;;;;;;;;;;;;;;;35.06;31.14;98983.98;1764188;81;20110;-70
2022/08/19 10:18:44;;;;;;;;;;;;;;;35.07;31.12;98984.20;1739382;81;20094;-70
2022/08/19 10:21:15;;;;;;;;;;;;;;;34.98;31.38;98980.71;1755017;81;20119;-70
2022/08/19 10:23:48;;;;;;;;;;;;;;;34.87;30.41;98981.48;1764500;81;20153;-70
2022/08/19 10:26:15;;;;;;;;;;;;;;;34.75;30.50;98986.41;1763755;81;21152;-72
2022/08/19 10:28:41;;;;;;;;;;;;;;;34.65;30.24;98985.46;1751778;81;20418;-72
2022/08/19 10:31:09;;;;;;;;;;;;;;;34.63;30.79;98980.83;1755328;81;20396;-74
2022/08/19 10:33:36;;;;;;;;;;;;;;;34.55;29.68;98977.01;1756251;81;20124;-70
2022/08/19 10:36:05;;;;;;;;;;;;;;;34.51;29.40;98976.62;1729369;81;20192;-73
2022/08/19 10:38:31;;;;;;;;;;;;;;;34.30;30.54;98978.59;1737638;81;21828;-72
2022/08/19 10:40:58;;;;;;;;;;;;;;;34.12;30.50;98977.38;1732983;83;20096;-72
2022/08/19 10:43:24;;;;;;;;;;;;;;;34.09;30.04;98977.23;1726247;81;20142;-72
2022/08/19 10:45:59;;;;;;;;;;;;;;;34.05;30.26;98975.67;1719660;81;20400;-74
2022/08/19 10:48:23;;;;;;;;;;;;;;;34.07;31.00;98974.82;1732270;81;20072;-72
2022/08/19 10:53:35;;;;;;;;;;;;;;;34.11;31.18;98971.61;1751144;81;20120;-73
2022/08/19 10:58:47;;;;;;;;;;;;;;;34.15;29.38;98978.66;1732522;81;20149;-71
2022/08/19 11:01:14;;;;;;;;;;;;;;;34.08;30.36;98972.28;1733625;83;20116;-71
2022/08/19 11:03:40;;;;;;;;;;;;;;;34.08;30.97;98975.03;1733649;83;21820;-72
2022/08/19 11:06:07;;;;;;;;;;;;;;;34.12;31.16;98978.75;1733579;81;20072;-72
2022/08/19 11:08:34;;;;;;;;;;;;;;;34.14;31.04;98975.08;1732223;83;20154;-73
2022/08/19 11:11:02;;;;;;;;;;;;;;;34.04;30.82;98979.59;1733592;81;20446;-71
2022/08/19 11:13:33;;;;;;;;;;;;;;;33.81;31.69;98982.44;1728604;83;20125;-72
2022/08/19 11:16:06;;;;;;;;;;;;;;;33.76;31.65;98978.50;1714225;83;21246;-72
2022/08/19 11:18:37;;;;;;;;;;;;;;;33.81;31.87;98981.63;1722901;82;20492;-72
2022/08/19 11:21:13;;;;;;;;;;;;;;;33.85;32.25;98988.08;1733168;82;20099;-71
2022/08/19 11:23:40;;;;;;;;;;;;;;;33.92;32.70;98976.74;1721682;82;20177;-72
2022/08/19 11:26:06;;;;;;;;;;;;;;;33.98;31.90;98979.55;1714328;83;20089;-72
2022/08/19 11:28:33;;;;;;;;;;;;;;;33.96;32.39;98981.84;1713388;82;21320;-71
2022/08/19 11:30:59;;;;;;;;;;;;;;;33.95;32.22;98975.27;1710526;82;20097;-72
2022/08/19 11:33:26;;;;;;;;;;;;;;;33.96;32.21;98977.70;1712265;82;20190;-72
2022/08/19 11:35:53;;;;;;;;;;;;;;;33.94;32.25;98974.48;1714214;82;20145;-71
2022/08/19 11:38:19;;;;;;;;;;;;;;;33.94;31.83;98975.86;1714265;82;20121;-71
2022/08/19 11:40:47;;;;;;;;;;;;;;;33.94;31.59;98969.53;1712910;83;21536;-73
2022/08/19 11:43:14;;;;;;;;;;;;;;;33.90;31.16;98969.38;1691246;83;20204;-71
2022/08/19 11:45:41;;;;;;;;;;;;;;;33.79;31.12;98963.23;1714354;83;20101;-71
2022/08/19 11:48:07;;;;;;;;;;;;;;;33.67;31.41;98970.02;1714896;82;20094;-73
2022/08/19 11:50:34;;;;;;;;;;;;;;;33.54;31.45;98964.40;1712944;82;20158;-72
2022/08/19 11:53:00;;;;;;;;;;;;;;;33.43;31.89;98966.47;1706545;82;21938;-74
2022/08/19 11:55:26;;;;;;;;;;;;;;;33.26;31.93;98955.55;1714314;82;20470;-71
2022/08/19 11:57:52;;;;;;;;;;;;;;;33.08;32.16;98949.31;1713110;82;20181;-74
2022/08/19 12:00:19;;;;;;;;;;;;;;;32.98;32.00;98946.08;1714283;82;20098;-70
2022/08/19 12:02:45;;;;;;;;;;;;;;;32.93;32.44;98949.80;1713149;82;20431;-74
2022/08/19 12:05:12;;;;;;;;;;;;;;;32.92;32.53;98948.20;1714367;83;21570;-72
2022/08/19 12:07:39;;;;;;;;;;;;;;;32.85;32.06;98956.17;1713706;83;20086;-71
2022/08/19 12:10:06;;;;;;;;;;;;;;;32.80;32.29;98955.75;1714381;82;20140;-72
2022/08/19 12:12:32;;;;;;;;;;;;;;;32.80;32.47;98950.84;1714324;83;20189;-74
2022/08/19 12:14:58;;;;;;;;;;;;;;;32.84;32.47;98953.98;1714222;82;20085;-72
2022/08/19 12:17:26;;;;;;;;;;;;;;;32.85;32.34;98954.20;1713741;82;21979;-72
2022/08/19 12:19:53;;;;;;;;;;;;;;;32.83;32.05;98939.95;1713557;82;20149;-71
2022/08/19 12:22:20;;;;;;;;;;;;;;;32.77;32.44;98944.02;1713930;83;20461;-73
2022/08/19 12:24:47;;;;;;;;;;;;;;;32.75;32.76;98940.78;1713583;82;20463;-72
2022/08/19 12:27:13;;;;;;;;;;;;;;;32.70;32.91;98938.20;1714559;83;20089;-73
2022/08/19 12:29:41;;;;;;;;;;;;;;;32.64;33.09;98937.35;1714675;83;21792;-72
2022/08/19 12:32:08;;;;;;;;;;;;;;;32.61;33.66;98931.93;1715862;83;20085;-73
2022/08/19 12:34:37;;;;;;;;;;;;;;;32.60;32.70;98924.80;1694898;83;20105;-73
2022/08/19 12:37:04;;;;;;;;;;;;;;;32.53;32.04;98927.25;1717254;83;20097;-72
2022/08/19 12:39:36;;;;;;;;;;;;;;;32.46;32.28;98922.76;1717633;80;20095;-71
2022/08/19 12:42:04;;;;;;;;;;;;;;;32.42;32.55;98925.94;1715862;82;21077;-74
2022/08/19 12:44:31;;;;;;;;;;;;;;;32.38;32.91;98921.42;1716514;80;20168;-72
2022/08/19 12:46:58;;;;;;;;;;;;;;;32.36;33.02;98920.35;1717106;81;20074;-72
2022/08/19 12:49:24;;;;;;;;;;;;;;;32.34;32.22;98921.25;1717155;80;20097;-72
2022/08/19 12:51:52;;;;;;;;;;;;;;;32.28;32.08;98912.35;1715345;81;20116;-73
2022/08/19 12:54:18;;;;;;;;;;;;;;;32.21;32.27;98912.05;1716868;81;21078;-73
2022/08/19 12:56:44;;;;;;;;;;;;;;;32.14;33.01;98913.67;1717075;82;20117;-71
2022/08/19 12:59:11;;;;;;;;;;;;;;;32.10;32.94;98912.13;1717326;83;20074;-72
2022/08/19 13:01:37;;;;;;;;;;;;;;;32.06;32.94;98911.73;1698059;81;20102;-73
2022/08/19 13:04:04;;;;;;;;;;;;;;;31.99;32.54;98905.89;1697619;82;20109;-72
2022/08/19 13:06:31;;;;;;;;;;;;;;;31.95;33.14;98907.66;1714578;83;21113;-73
2022/08/19 13:08:57;;;;;;;;;;;;;;;31.94;33.21;98910.17;1714394;82;20082;-72
2022/08/19 13:11:24;;;;;;;;;;;;;;;31.87;33.63;98900.20;1714324;83;20090;-71